Aviation Digital Data Service (ADDS)

Output produced by METARs form (1425 UTC 22 April 2021)
found at http://aviationweather.gov/metar/data/
 
METAR text: KRNT 221353Z 14004KT 10SM OVC022 10/05 A2994 RMK AO2 SLP144 T01000050
Conditions at: KRNT (RENTON , WA, US) observed 1353 UTC 22 April 2021
Temperature: 10.0°C (50°F)
Dewpoint: 5.0°C (41°F) [RH = 71%]
Pressure (altimeter): 29.94 inches Hg (1014.0 mb)
[Sea-level pressure: 1014.4 mb]
Winds: from the SE (140 degrees) at 5 MPH (4 knots; 2.1 m/s)
Visibility: 10 or more miles (16+ km)
Ceiling: 2200 feet AGL
Clouds: overcast cloud deck at 2200 feet AGL
Weather: no significant weather observed at this time

METAR text: KRNT 221253Z AUTO 18007KT 10SM OVC018 10/06 A2993 RMK AO2 SLP140 T01000056
Conditions at: KRNT (RENTON , WA, US) observed 1253 UTC 22 April 2021
Temperature: 10.0°C (50°F)
Dewpoint: 5.6°C (42°F) [RH = 74%]
Pressure (altimeter): 29.93 inches Hg (1013.6 mb)
[Sea-level pressure: 1014.0 mb]
Winds: from the S (180 degrees) at 8 MPH (7 knots; 3.6 m/s)
Visibility: 10 or more miles (16+ km)
Ceiling: 1800 feet AGL
Clouds: overcast cloud deck at 1800 feet AGL
Weather: automated observation with no human augmentation;
there may or may not be significant weather present at this time